createdAt,value
2019-01-16T00:00:48.741Z,79.34
2019-01-16T00:01:48.693Z,79.14
2019-01-16T00:02:48.685Z,79.86
2019-01-16T00:03:48.740Z,79.65
2019-01-16T00:04:48.660Z,79.34
2019-01-16T00:05:48.651Z,79.75
2019-01-16T00:06:48.640Z,79.65
2019-01-16T00:07:48.632Z,79.75
2019-01-16T00:08:48.655Z,79.55
2019-01-16T00:09:48.632Z,79.96
2019-01-16T00:10:48.596Z,79.55
2019-01-16T00:11:48.584Z,79.55
2019-01-16T00:12:48.577Z,79.65
2019-01-16T00:13:48.563Z,79.65
2019-01-16T00:14:48.575Z,79.44
2019-01-16T00:15:48.561Z,79.75
2019-01-16T00:16:48.544Z,79.44
2019-01-16T00:17:48.525Z,79.65
2019-01-16T00:18:48.525Z,79.44
2019-01-16T00:19:48.554Z,79.75
2019-01-16T00:20:48.493Z,79.55
2019-01-16T00:21:48.475Z,79.86
2019-01-16T00:22:48.496Z,79.55
2019-01-16T00:23:48.453Z,79.96
2019-01-16T00:24:48.507Z,79.86
2019-01-16T00:25:48.431Z,79.96
2019-01-16T00:26:48.425Z,80.06
2019-01-16T00:27:48.449Z,80.30
2019-01-16T00:28:48.422Z,80.37
2019-01-16T00:29:48.398Z,79.75
2019-01-16T00:30:48.395Z,80.27
2019-01-16T00:31:48.369Z,79.86
2019-01-16T00:32:48.356Z,80.06
2019-01-16T00:33:48.350Z,80.37
2019-01-16T00:34:48.335Z,80.37
2019-01-16T00:35:48.347Z,80.37
2019-01-16T00:36:48.312Z,80.89
2019-01-16T00:37:48.302Z,81.20
2019-01-16T00:38:48.294Z,81.81
2019-01-16T00:39:48.284Z,82.02
2019-01-16T00:40:48.294Z,81.85
2019-01-16T00:41:48.258Z,82.47
2019-01-16T00:42:48.251Z,82.47
2019-01-16T00:43:48.244Z,82.06
2019-01-16T00:44:48.240Z,83.29
2019-01-16T00:45:48.238Z,83.44
2019-01-16T00:46:48.875Z,83.50
2019-01-16T00:47:48.210Z,83.91
2019-01-16T00:48:48.199Z,84.43
2019-01-16T00:49:48.185Z,84.67
2019-01-16T00:50:48.210Z,84.53
2019-01-16T00:51:48.149Z,83.09
2019-01-16T00:52:48.140Z,83.85
2019-01-16T00:53:48.136Z,83.29
2019-01-16T00:54:48.165Z,83.09
2019-01-16T00:55:48.298Z,83.29
2019-01-16T00:56:48.115Z,83.40
2019-01-16T00:57:48.089Z,83.50
2019-01-16T00:58:48.095Z,82.98
2019-01-16T00:59:48.062Z,82.98
2019-01-16T01:00:55.638Z,83.40
2019-01-16T01:01:48.101Z,83.81
2019-01-16T01:02:48.035Z,84.01
2019-01-16T01:03:48.020Z,84.12
2019-01-16T01:04:48.012Z,84.06
2019-01-16T01:05:48.001Z,84.06
2019-01-16T01:06:48.005Z,83.95
2019-01-16T01:07:47.985Z,83.64
2019-01-16T01:08:48.023Z,83.61
2019-01-16T01:09:47.994Z,83.75
2019-01-16T01:10:47.947Z,84.53
2019-01-16T01:11:47.977Z,84.27
2019-01-16T01:12:47.925Z,84.12
2019-01-16T01:13:47.917Z,84.36
2019-01-16T01:14:47.969Z,84.64
2019-01-16T01:15:47.901Z,84.57
2019-01-16T01:16:47.880Z,83.64
2019-01-16T01:17:47.888Z,83.85
2019-01-16T01:18:47.861Z,83.95
2019-01-16T01:19:47.892Z,83.54
2019-01-16T01:20:47.877Z,83.81
2019-01-16T01:21:47.871Z,83.19
2019-01-16T01:22:47.880Z,83.54
2019-01-16T01:23:47.813Z,83.61
2019-01-16T01:24:48.071Z,83.23
2019-01-16T01:25:47.789Z,83.91
2019-01-16T01:26:47.813Z,83.75
2019-01-16T01:27:47.765Z,83.71
2019-01-16T01:28:47.759Z,83.64
2019-01-16T01:29:47.738Z,83.40
2019-01-16T01:30:47.739Z,83.09
2019-01-16T01:31:47.750Z,83.61
2019-01-16T01:32:47.732Z,84.06
2019-01-16T01:33:47.713Z,84.88
2019-01-16T01:34:47.688Z,85.30
2019-01-16T01:35:47.673Z,85.71
2019-01-16T01:36:47.668Z,85.09
2019-01-16T01:37:47.681Z,85.81
2019-01-16T01:38:47.667Z,86.12
2019-01-16T01:39:47.638Z,86.32
2019-01-16T01:40:47.625Z,85.60
2019-01-16T01:41:47.611Z,86.12
2019-01-16T01:42:47.714Z,86.53
2019-01-16T01:43:47.604Z,86.63
2019-01-16T01:44:47.579Z,86.43
2019-01-16T01:45:47.569Z,86.74
2019-01-16T01:46:47.873Z,86.43
2019-01-16T01:47:47.553Z,86.94
2019-01-16T01:48:47.602Z,86.26
2019-01-16T01:49:47.529Z,86.53
2019-01-16T01:50:47.512Z,86.02
2019-01-16T01:51:47.515Z,85.81
2019-01-16T01:52:47.491Z,85.64
2019-01-16T01:53:47.503Z,85.71
2019-01-16T01:54:47.512Z,85.50
2019-01-16T01:55:47.528Z,85.50
2019-01-16T01:56:47.451Z,85.19
2019-01-16T01:57:47.453Z,84.99
2019-01-16T01:58:47.470Z,84.88
2019-01-16T01:59:47.421Z,84.06
2019-01-16T02:00:47.412Z,83.61
2019-01-16T02:01:47.396Z,83.19
2019-01-16T02:02:47.389Z,82.89
2019-01-16T02:03:47.404Z,83.13
2019-01-16T02:04:47.383Z,83.19
2019-01-16T02:05:47.361Z,82.68
2019-01-16T02:06:47.369Z,83.19
2019-01-16T02:07:47.341Z,83.40
2019-01-16T02:08:47.330Z,83.29
2019-01-16T02:09:47.329Z,82.47
2019-01-16T02:10:47.300Z,82.57
2019-01-16T02:11:47.296Z,82.06
2019-01-16T02:12:47.299Z,82.26
2019-01-16T02:13:47.266Z,82.47
2019-01-16T02:14:55.996Z,82.57
2019-01-16T02:15:55.809Z,82.06
2019-01-16T02:16:55.791Z,82.26
2019-01-16T02:17:55.782Z,82.47
2019-01-16T02:18:55.388Z,82.26
2019-01-16T02:21:04.642Z,82.16
2019-01-16T02:22:04.639Z,82.16
2019-01-16T02:23:04.722Z,83.09
2019-01-16T02:24:04.641Z,82.16
2019-01-16T02:25:04.597Z,83.09
2019-01-16T02:26:04.590Z,83.40
2019-01-16T02:27:04.582Z,83.44
2019-01-16T02:28:04.565Z,83.09
2019-01-16T02:29:12.112Z,82.89
2019-01-16T02:30:04.572Z,83.09
2019-01-16T02:31:04.537Z,83.09
2019-01-16T02:32:04.534Z,82.89
2019-01-16T02:33:04.518Z,82.98
2019-01-16T02:34:04.518Z,83.81
2019-01-16T02:35:04.510Z,84.01
2019-01-16T02:37:23.246Z,84.94
2019-01-16T02:38:23.236Z,85.71
2019-01-16T02:39:23.279Z,86.22
2019-01-16T02:40:23.240Z,86.68
2019-01-16T02:41:23.202Z,86.43
2019-01-16T02:42:23.188Z,86.43
2019-01-16T02:43:23.180Z,86.47
2019-01-16T02:44:23.175Z,86.88
2019-01-16T02:45:23.207Z,86.02
2019-01-16T02:46:23.154Z,86.02
2019-01-16T02:47:23.143Z,85.30
2019-01-16T02:48:23.122Z,85.30
2019-01-16T02:50:40.330Z,84.99
2019-01-16T02:51:40.305Z,84.36
2019-01-16T02:52:40.312Z,84.67
2019-01-16T02:53:40.272Z,83.54
2019-01-16T02:54:40.269Z,83.64
2019-01-16T02:55:40.256Z,83.71
2019-01-16T02:56:40.276Z,83.23
2019-01-16T02:57:40.237Z,83.44
2019-01-16T02:58:40.254Z,83.44
2019-01-16T02:59:40.215Z,83.54
2019-01-16T03:00:40.197Z,83.13
2019-01-16T03:01:40.219Z,83.44
2019-01-16T03:02:40.176Z,83.54
2019-01-16T03:03:40.200Z,83.23
2019-01-16T03:04:40.183Z,83.54
2019-01-16T03:05:40.158Z,83.03
2019-01-16T03:06:40.157Z,82.92
2019-01-16T03:07:40.219Z,83.54
2019-01-16T03:08:40.114Z,82.92
2019-01-16T03:09:40.102Z,83.33
2019-01-16T03:10:40.091Z,83.03
2019-01-16T03:11:40.391Z,83.13
2019-01-16T03:12:40.075Z,83.33
2019-01-16T03:13:40.062Z,82.40
2019-01-16T03:14:40.066Z,82.57
2019-01-16T03:15:40.035Z,82.10
2019-01-16T03:16:40.064Z,82.26
2019-01-16T03:17:40.032Z,82.26
2019-01-16T03:18:40.014Z,81.65
2019-01-16T03:19:39.996Z,82.16
2019-01-16T03:20:39.983Z,81.96
2019-01-16T03:21:39.975Z,81.85
2019-01-16T03:22:39.999Z,81.65
2019-01-16T03:23:39.943Z,81.65
2019-01-16T03:24:39.942Z,81.65
2019-01-16T03:25:39.932Z,81.13
2019-01-16T03:26:39.929Z,80.72
2019-01-16T03:27:39.946Z,80.72
2019-01-16T03:28:39.902Z,81.13
2019-01-16T03:29:39.880Z,80.20
2019-01-16T03:30:39.871Z,80.51
2019-01-16T03:31:39.873Z,79.96
2019-01-16T03:32:39.920Z,79.69
2019-01-16T03:33:39.959Z,80.00
2019-01-16T03:34:39.838Z,79.75
2019-01-16T03:35:39.826Z,79.58
2019-01-16T03:36:39.811Z,80.10
2019-01-16T03:37:39.825Z,79.58
2019-01-16T03:38:39.846Z,80.00
2019-01-16T03:39:39.822Z,80.37
2019-01-16T03:40:39.766Z,80.47
2019-01-16T03:41:39.757Z,80.30
2019-01-16T03:42:39.771Z,80.27
2019-01-16T03:43:39.748Z,80.93
2019-01-16T03:44:39.726Z,81.03
2019-01-16T03:45:39.722Z,80.20
2019-01-16T03:46:39.709Z,79.34
2019-01-16T03:47:39.709Z,80.41
2019-01-16T03:48:39.692Z,80.47
2019-01-16T03:49:39.679Z,80.62
2019-01-16T03:50:39.668Z,79.96
2019-01-16T03:51:39.717Z,80.10
2019-01-16T03:54:29.711Z,79.90
2019-01-16T03:55:29.682Z,79.75
2019-01-16T03:56:29.662Z,79.34
2019-01-16T03:57:29.653Z,79.44
2019-01-16T03:58:29.740Z,79.44
2019-01-16T03:59:29.630Z,79.24
2019-01-16T04:00:29.682Z,79.75
2019-01-16T04:01:29.630Z,78.72
2019-01-16T04:02:29.601Z,78.83
2019-01-16T04:03:29.598Z,79.03
2019-01-16T04:04:29.618Z,78.62
2019-01-16T04:05:29.566Z,78.62
2019-01-16T04:06:30.226Z,79.75
2019-01-16T04:08:45.746Z,79.75
2019-01-16T04:09:45.712Z,79.65
2019-01-16T04:10:45.706Z,79.24
2019-01-16T04:11:45.694Z,79.55
2019-01-16T04:12:45.692Z,79.55
2019-01-16T04:13:45.704Z,80.10
2019-01-16T04:14:45.663Z,79.79
2019-01-16T04:15:45.658Z,79.44
2019-01-16T04:16:45.639Z,79.44
2019-01-16T04:17:45.636Z,79.65
2019-01-16T04:18:45.629Z,79.27
2019-01-16T04:19:45.642Z,79.75
2019-01-16T04:20:53.139Z,79.38
2019-01-16T04:21:45.584Z,78.52
2019-01-16T04:22:45.571Z,78.41
2019-01-16T04:23:45.564Z,79.27
2019-01-16T04:24:45.579Z,78.45
2019-01-16T04:25:45.609Z,78.83
2019-01-16T04:26:45.535Z,78.93
2019-01-16T04:27:45.527Z,79.24
2019-01-16T04:28:45.513Z,78.93
2019-01-16T04:29:45.520Z,78.83
2019-01-16T04:30:45.488Z,79.69
2019-01-16T04:31:45.515Z,79.44
2019-01-16T04:32:45.474Z,78.76
2019-01-16T04:33:45.454Z,79.03
2019-01-16T04:34:45.476Z,78.45
2019-01-16T04:35:45.443Z,79.34
2019-01-16T04:36:45.436Z,78.86
2019-01-16T04:37:45.438Z,78.97
2019-01-16T04:38:45.470Z,79.17
2019-01-16T04:39:45.437Z,79.90
2019-01-16T04:40:45.382Z,79.07
2019-01-16T04:41:45.375Z,78.66
2019-01-16T04:42:45.363Z,79.03
2019-01-16T04:43:45.348Z,78.83
2019-01-16T04:44:45.396Z,78.55
2019-01-16T04:45:45.403Z,78.97
2019-01-16T04:46:45.316Z,79.27
2019-01-16T04:47:45.303Z,77.90
2019-01-16T04:48:45.311Z,78.14
2019-01-16T04:49:45.315Z,78.45
2019-01-16T04:50:45.275Z,79.24
2019-01-16T04:51:45.256Z,78.86
2019-01-16T04:52:45.251Z,78.24
2019-01-16T04:53:53.803Z,78.55
2019-01-16T04:54:45.277Z,78.34
2019-01-16T04:55:45.218Z,78.34
2019-01-16T04:56:45.213Z,78.45
2019-01-16T04:57:45.196Z,77.94
2019-01-16T04:58:45.187Z,78.24
2019-01-16T04:59:45.198Z,78.76
2019-01-16T05:00:45.172Z,78.45
2019-01-16T05:01:45.152Z,78.31
2019-01-16T05:02:45.146Z,78.04
2019-01-16T05:03:45.132Z,77.73
2019-01-16T05:04:45.122Z,77.83
2019-01-16T05:05:45.137Z,78.34
2019-01-16T05:06:45.100Z,77.94
2019-01-16T05:07:45.104Z,78.24
2019-01-16T05:08:45.080Z,77.83
2019-01-16T05:09:45.084Z,77.94
2019-01-16T05:10:45.053Z,77.62
2019-01-16T05:11:45.047Z,78.11
2019-01-16T05:12:45.034Z,77.83
2019-01-16T05:13:45.025Z,77.31
2019-01-16T05:14:45.042Z,77.42
2019-01-16T05:15:45.007Z,77.73
2019-01-16T05:16:45.001Z,77.52
2019-01-16T05:17:44.981Z,77.31
2019-01-16T05:18:44.968Z,77.22
2019-01-16T05:19:44.954Z,77.18
2019-01-16T05:20:44.965Z,77.22
2019-01-16T05:21:44.941Z,77.38
2019-01-16T05:22:44.956Z,77.59
2019-01-16T05:23:44.914Z,77.80
2019-01-16T05:24:44.911Z,77.22
2019-01-16T05:25:44.965Z,77.28
2019-01-16T05:26:44.890Z,77.59
2019-01-16T05:27:44.870Z,76.04
2019-01-16T05:28:44.871Z,76.25
2019-01-16T05:29:44.847Z,76.46
2019-01-16T05:30:44.861Z,76.18
2019-01-16T05:31:44.831Z,76.08
2019-01-16T05:32:44.819Z,76.04
2019-01-16T05:33:44.817Z,76.39
2019-01-16T05:34:44.835Z,75.94
2019-01-16T05:35:44.809Z,76.29
2019-01-16T05:36:44.774Z,76.18
2019-01-16T05:37:44.763Z,76.39
2019-01-16T05:38:44.747Z,76.25
2019-01-16T05:39:44.742Z,76.04
2019-01-16T05:40:44.728Z,75.36
2019-01-16T05:41:44.754Z,75.67
2019-01-16T05:42:44.703Z,75.73
2019-01-16T05:43:44.714Z,75.56
2019-01-16T05:44:44.688Z,75.94
2019-01-16T05:45:44.685Z,76.04
2019-01-16T05:46:44.685Z,75.46
2019-01-16T05:47:44.708Z,74.80
2019-01-16T05:48:44.645Z,74.63
2019-01-16T05:49:46.893Z,74.95
2019-01-16T05:50:44.621Z,74.43
2019-01-16T05:51:44.625Z,74.50
2019-01-16T05:52:44.601Z,74.22
2019-01-16T05:53:44.586Z,74.71
2019-01-16T05:54:44.587Z,74.19
2019-01-16T05:55:44.602Z,74.29
2019-01-16T05:56:44.572Z,73.88
2019-01-16T05:57:44.554Z,73.88
2019-01-16T05:58:44.538Z,74.08
2019-01-16T05:59:44.523Z,74.08
2019-01-16T06:00:44.644Z,74.08
2019-01-16T06:01:44.501Z,73.57
2019-01-16T06:02:44.515Z,73.98
2019-01-16T06:03:44.480Z,73.16
2019-01-16T06:04:44.481Z,72.96
2019-01-16T06:05:44.461Z,73.47
2019-01-16T06:06:44.448Z,73.26
2019-01-16T06:07:44.466Z,73.16
2019-01-16T06:08:44.430Z,73.16
2019-01-16T06:09:44.414Z,73.05
2019-01-16T06:10:44.412Z,72.96
2019-01-16T06:11:44.390Z,72.96
2019-01-16T06:12:44.415Z,73.16
2019-01-16T06:13:44.367Z,73.05
2019-01-16T06:14:44.388Z,73.16
2019-01-16T06:15:44.347Z,72.75
2019-01-16T06:16:44.348Z,73.05
2019-01-16T06:17:44.368Z,72.64
2019-01-16T06:18:44.317Z,72.64
2019-01-16T06:19:44.313Z,72.54
2019-01-16T06:20:44.295Z,72.41
2019-01-16T06:21:44.280Z,72.33
2019-01-16T06:22:44.277Z,72.54
2019-01-16T06:23:44.276Z,72.44
2019-01-16T06:24:44.250Z,72.44
2019-01-16T06:25:44.241Z,72.33
2019-01-16T06:26:44.234Z,72.33
2019-01-16T06:27:44.215Z,72.44
2019-01-16T06:28:44.227Z,72.75
2019-01-16T06:29:44.202Z,72.54
2019-01-16T06:30:44.199Z,72.33
2019-01-16T06:31:44.178Z,72.54
2019-01-16T06:32:44.162Z,72.33
2019-01-16T06:33:44.201Z,72.44
2019-01-16T06:34:44.144Z,72.54
2019-01-16T06:35:44.132Z,72.51
2019-01-16T06:36:44.120Z,72.33
2019-01-16T06:37:44.110Z,72.33
2019-01-16T06:38:44.105Z,71.72
2019-01-16T06:39:44.109Z,71.82
2019-01-16T06:40:44.078Z,71.92
2019-01-16T06:41:44.064Z,71.92
2019-01-16T06:42:44.054Z,72.13
2019-01-16T06:43:44.043Z,72.33
2019-01-16T06:44:44.070Z,71.92
2019-01-16T06:45:44.029Z,72.23
2019-01-16T06:46:44.007Z,72.13
2019-01-16T06:47:43.995Z,72.13
2019-01-16T06:48:43.987Z,72.13
2019-01-16T06:49:43.977Z,72.44
2019-01-16T06:50:43.994Z,71.82
2019-01-16T06:51:43.960Z,72.03
2019-01-16T06:52:43.943Z,71.72
2019-01-16T06:53:43.951Z,71.92
2019-01-16T06:54:43.923Z,71.95
2019-01-16T06:55:43.972Z,72.13
2019-01-16T06:56:43.909Z,72.44
2019-01-16T06:57:43.897Z,72.13
2019-01-16T06:58:43.878Z,71.82
2019-01-16T06:59:43.887Z,71.85
2019-01-16T07:00:43.881Z,71.10
2019-01-16T07:01:43.844Z,71.92
2019-01-16T07:02:43.854Z,71.34
2019-01-16T07:03:43.822Z,71.55
2019-01-16T07:04:43.814Z,71.51
2019-01-16T07:05:43.828Z,71.44
2019-01-16T07:06:43.801Z,71.72
2019-01-16T07:07:43.782Z,71.44
2019-01-16T07:08:43.799Z,71.30
2019-01-16T07:09:43.757Z,70.10
2019-01-16T07:10:43.782Z,70.41
2019-01-16T07:11:43.732Z,69.69
2019-01-16T07:12:43.731Z,70.51
2019-01-16T07:13:43.712Z,70.00
2019-01-16T07:14:43.702Z,69.79
2019-01-16T07:15:43.712Z,69.59
2019-01-16T07:16:43.691Z,69.69
2019-01-16T07:17:43.679Z,69.38
2019-01-16T07:18:43.663Z,69.27
2019-01-16T07:19:43.673Z,69.31
2019-01-16T07:20:43.637Z,69.62
2019-01-16T07:21:43.639Z,69.38
2019-01-16T07:22:43.615Z,69.31
2019-01-16T07:23:43.608Z,69.93
2019-01-16T07:24:43.637Z,69.72
2019-01-16T07:25:43.585Z,69.82
2019-01-16T07:26:43.593Z,69.51
2019-01-16T07:27:43.578Z,69.72
2019-01-16T07:28:43.559Z,69.62
2019-01-16T07:29:43.538Z,69.62
2019-01-16T07:30:43.575Z,69.62
2019-01-16T07:31:43.517Z,69.51
2019-01-16T07:32:43.511Z,69.72
2019-01-16T07:33:43.497Z,70.03
2019-01-16T07:34:43.484Z,69.62
2019-01-16T07:35:43.494Z,69.51
2019-01-16T07:36:43.468Z,69.31
2019-01-16T07:37:43.454Z,69.41
2019-01-16T07:38:43.440Z,69.41
2019-01-16T07:39:43.461Z,69.72
2019-01-16T07:40:43.444Z,69.82
2019-01-16T07:41:43.408Z,69.82
2019-01-16T07:42:46.926Z,69.51
2019-01-16T07:43:43.401Z,69.72
2019-01-16T07:44:43.385Z,69.72
2019-01-16T07:45:43.397Z,69.72
2019-01-16T07:46:43.359Z,69.93
2019-01-16T07:47:43.346Z,69.85
2019-01-16T07:48:43.339Z,69.10
2019-01-16T07:49:43.322Z,69.51
2019-01-16T07:50:43.317Z,69.51
2019-01-16T07:51:43.332Z,69.72
2019-01-16T07:52:43.335Z,69.93
2019-01-16T07:53:43.277Z,69.41
2019-01-16T07:54:43.267Z,69.10
2019-01-16T07:55:43.332Z,69.31
2019-01-16T07:56:43.273Z,69.10
2019-01-16T07:57:43.234Z,69.10
2019-01-16T07:58:43.242Z,69.10
2019-01-16T07:59:43.212Z,69.10
2019-01-16T08:00:43.202Z,69.10
2019-01-16T08:01:43.213Z,69.00
2019-01-16T08:02:43.192Z,69.20
2019-01-16T08:03:43.189Z,69.10
2019-01-16T08:04:43.177Z,69.20
2019-01-16T08:05:43.153Z,69.41
2019-01-16T08:06:43.142Z,69.41
2019-01-16T08:07:43.144Z,68.38
2019-01-16T08:08:43.123Z,69.20
2019-01-16T08:09:43.105Z,69.31
2019-01-16T08:10:43.102Z,69.31
2019-01-16T08:11:43.087Z,69.20
2019-01-16T08:12:43.090Z,69.51
2019-01-16T08:13:43.059Z,69.20
2019-01-16T08:14:43.048Z,69.20
2019-01-16T08:15:43.040Z,69.10
2019-01-16T08:16:43.030Z,68.38
2019-01-16T08:17:43.034Z,68.27
2019-01-16T08:18:43.005Z,69.10
2019-01-16T08:19:43.000Z,68.17
2019-01-16T08:20:42.984Z,69.00
2019-01-16T08:21:42.972Z,69.41
2019-01-16T08:22:42.982Z,69.20
2019-01-16T08:23:42.954Z,69.31
2019-01-16T08:24:42.937Z,68.90
2019-01-16T08:25:42.927Z,69.31
2019-01-16T08:26:42.926Z,69.41
2019-01-16T08:27:42.928Z,68.48
2019-01-16T08:28:42.896Z,68.48
2019-01-16T08:29:42.886Z,68.07
2019-01-16T08:30:42.873Z,69.31
2019-01-16T08:31:42.873Z,68.59
2019-01-16T08:32:42.871Z,68.59
2019-01-16T08:33:42.846Z,68.48
2019-01-16T08:34:42.833Z,68.38
2019-01-16T08:35:42.822Z,69.31
2019-01-16T08:36:42.811Z,68.38
2019-01-16T08:37:42.824Z,68.21
2019-01-16T08:38:42.786Z,68.21
2019-01-16T08:39:42.777Z,68.21
2019-01-16T08:40:42.765Z,68.93
2019-01-16T08:41:42.753Z,68.62
2019-01-16T08:42:42.762Z,68.30
2019-01-16T08:43:42.740Z,68.07
2019-01-16T08:44:42.726Z,68.41
2019-01-16T08:45:42.710Z,68.17
2019-01-16T08:46:42.700Z,68.41
2019-01-16T08:47:42.716Z,68.38
2019-01-16T08:48:42.677Z,68.30
2019-01-16T08:49:42.672Z,68.27
2019-01-16T08:50:42.658Z,68.38
2019-01-16T08:51:42.648Z,68.17
2019-01-16T08:52:42.638Z,67.86
2019-01-16T08:53:42.642Z,67.86
2019-01-16T08:54:42.614Z,68.30
2019-01-16T08:55:42.605Z,68.51
2019-01-16T08:56:42.593Z,68.00
2019-01-16T08:57:42.621Z,67.97
2019-01-16T08:58:42.570Z,67.76
2019-01-16T08:59:42.559Z,67.66
2019-01-16T09:00:42.551Z,67.79
2019-01-16T09:01:42.561Z,67.86
2019-01-16T09:02:42.531Z,68.21
2019-01-16T09:03:42.534Z,68.21
2019-01-16T09:04:42.505Z,67.69
2019-01-16T09:05:42.496Z,68.21
2019-01-16T09:06:42.484Z,67.90
2019-01-16T09:07:42.479Z,68.51
2019-01-16T09:08:42.479Z,68.21
2019-01-16T09:09:42.450Z,69.03
2019-01-16T09:10:42.439Z,68.30
2019-01-16T09:11:43.079Z,68.62
2019-01-16T09:12:42.417Z,69.13
2019-01-16T09:13:42.429Z,69.13
2019-01-16T09:14:42.394Z,69.34
2019-01-16T09:15:42.385Z,69.34
2019-01-16T09:16:42.374Z,69.24
2019-01-16T09:17:42.478Z,69.24
2019-01-16T09:18:42.368Z,69.24
2019-01-16T09:19:42.344Z,69.44
2019-01-16T09:20:42.332Z,69.44
2019-01-16T09:21:42.320Z,69.13
2019-01-16T09:22:42.313Z,69.03
2019-01-16T09:23:42.321Z,69.03
2019-01-16T09:24:42.287Z,69.03
2019-01-16T09:25:42.285Z,68.93
2019-01-16T09:26:42.268Z,69.24
2019-01-16T09:27:42.259Z,69.24
2019-01-16T09:28:42.251Z,69.24
2019-01-16T09:29:42.251Z,69.13
2019-01-16T09:30:42.223Z,69.24
2019-01-16T09:31:42.219Z,69.44
2019-01-16T09:32:42.202Z,69.03
2019-01-16T09:33:42.188Z,69.34
2019-01-16T09:34:42.197Z,69.24
2019-01-16T09:35:42.168Z,69.24
2019-01-16T09:36:42.156Z,69.24
2019-01-16T09:37:42.148Z,69.03
2019-01-16T09:38:42.137Z,69.13
2019-01-16T09:39:42.148Z,69.44
2019-01-16T09:40:42.113Z,69.34
2019-01-16T09:41:42.103Z,69.24
2019-01-16T09:42:42.092Z,69.65
2019-01-16T09:43:42.090Z,69.65
2019-01-16T09:44:42.090Z,69.85
2019-01-16T09:45:42.062Z,70.13
2019-01-16T09:46:42.048Z,69.75
2019-01-16T09:47:42.037Z,69.96
2019-01-16T09:48:42.028Z,70.17
2019-01-16T09:49:42.043Z,69.96
2019-01-16T09:50:47.782Z,69.82
2019-01-16T09:51:42.991Z,70.99
2019-01-16T09:52:41.982Z,69.85
2019-01-16T09:53:41.971Z,69.82
2019-01-16T09:54:41.961Z,69.65
2019-01-16T09:55:41.986Z,70.27
2019-01-16T09:56:41.939Z,70.44
2019-01-16T09:57:41.929Z,69.85
2019-01-16T09:58:41.915Z,69.65
2019-01-16T09:59:41.931Z,69.34
2019-01-16T10:00:41.892Z,69.24
2019-01-16T10:01:41.890Z,69.44
2019-01-16T10:02:41.881Z,69.75
2019-01-16T10:03:41.861Z,69.85
2019-01-16T10:04:41.851Z,69.96
2019-01-16T10:05:41.859Z,70.68
2019-01-16T10:06:41.829Z,69.85
2019-01-16T10:07:41.823Z,69.24
2019-01-16T10:08:41.814Z,70.27
2019-01-16T10:09:41.796Z,69.13
2019-01-16T10:10:41.802Z,70.06
2019-01-16T10:11:41.772Z,69.75
2019-01-16T10:12:41.762Z,69.54
2019-01-16T10:13:41.750Z,69.62
2019-01-16T10:14:41.748Z,69.31
2019-01-16T10:15:41.746Z,69.51
2019-01-16T10:16:41.716Z,69.72
2019-01-16T10:17:41.709Z,69.00
2019-01-16T10:18:41.698Z,69.13
2019-01-16T10:19:41.686Z,69.24
2019-01-16T10:20:46.051Z,69.10
2019-01-16T10:21:41.664Z,69.03
2019-01-16T10:22:41.654Z,69.44
2019-01-16T10:23:41.642Z,69.00
2019-01-16T10:24:41.637Z,70.17
2019-01-16T10:25:41.624Z,69.82
2019-01-16T10:26:41.638Z,69.10
2019-01-16T10:27:41.600Z,69.03
2019-01-16T10:28:41.588Z,69.13
2019-01-16T10:29:41.581Z,69.31
2019-01-16T10:30:41.565Z,69.51
2019-01-16T10:31:41.573Z,69.13
2019-01-16T10:32:41.551Z,69.44
2019-01-16T10:33:41.533Z,69.44
2019-01-16T10:34:41.529Z,69.13
2019-01-16T10:35:41.511Z,69.24
2019-01-16T10:36:41.519Z,69.34
2019-01-16T10:37:41.489Z,69.24
2019-01-16T10:38:41.485Z,69.54
2019-01-16T10:39:41.470Z,69.51
2019-01-16T10:40:41.456Z,69.24
2019-01-16T10:41:41.472Z,68.10
2019-01-16T10:42:41.442Z,68.62
2019-01-16T10:43:41.425Z,69.24
2019-01-16T10:44:41.415Z,69.13
2019-01-16T10:45:41.404Z,69.44
2019-01-16T10:46:41.418Z,69.03
2019-01-16T10:47:41.381Z,69.13
2019-01-16T10:48:41.370Z,69.24
2019-01-16T10:49:41.361Z,69.13
2019-01-16T10:50:41.357Z,69.13
2019-01-16T10:51:41.336Z,69.03
2019-01-16T10:52:41.349Z,69.13
2019-01-16T10:53:41.325Z,69.13
2019-01-16T10:54:41.302Z,69.24
2019-01-16T10:55:41.293Z,69.24
2019-01-16T10:56:41.289Z,69.03
2019-01-16T10:57:41.293Z,69.44
2019-01-16T10:58:41.261Z,69.34
2019-01-16T10:59:41.253Z,69.03
2019-01-16T11:00:41.239Z,69.13
2019-01-16T11:01:41.266Z,68.96
2019-01-16T11:02:41.222Z,69.44
2019-01-16T11:03:41.219Z,69.65
2019-01-16T11:04:41.220Z,70.17
2019-01-16T11:05:41.185Z,69.03
2019-01-16T11:06:41.173Z,69.44
2019-01-16T11:07:41.178Z,69.24
2019-01-16T11:08:41.159Z,69.13
2019-01-16T11:09:41.142Z,68.41
2019-01-16T11:10:41.128Z,69.24
2019-01-16T11:11:41.118Z,71.51
2019-01-16T11:12:41.147Z,70.57
2019-01-16T11:13:41.101Z,70.54
2019-01-16T11:14:41.108Z,69.03
2019-01-16T11:15:41.073Z,68.90
2019-01-16T11:16:41.069Z,69.24
2019-01-16T11:17:41.071Z,69.24
2019-01-16T11:18:41.065Z,69.20
2019-01-16T11:19:41.038Z,69.10
2019-01-16T11:20:41.037Z,69.20
2019-01-16T11:21:41.012Z,68.48
2019-01-16T11:22:41.007Z,68.62
2019-01-16T11:23:41.013Z,69.24
2019-01-16T11:24:40.979Z,69.24
2019-01-16T11:25:40.969Z,69.13
2019-01-16T11:26:40.974Z,69.34
2019-01-16T11:27:40.947Z,69.34
2019-01-16T11:28:40.959Z,69.34
2019-01-16T11:29:40.928Z,69.44
2019-01-16T11:30:40.921Z,69.34
2019-01-16T11:31:40.902Z,69.13
2019-01-16T11:32:40.890Z,69.13
2019-01-16T11:33:40.908Z,69.44
2019-01-16T11:34:40.889Z,69.65
2019-01-16T11:35:40.861Z,69.13
2019-01-16T11:36:40.857Z,69.44
2019-01-16T11:37:40.842Z,69.75
2019-01-16T11:38:40.894Z,69.54
2019-01-16T11:39:40.835Z,69.13
2019-01-16T11:40:40.806Z,69.24
2019-01-16T11:41:40.803Z,70.27
2019-01-16T11:42:40.782Z,70.06
2019-01-16T11:43:40.770Z,69.13
2019-01-16T11:44:40.782Z,69.54
2019-01-16T11:45:40.767Z,69.68
2019-01-16T11:46:40.737Z,70.27
2019-01-16T11:47:40.727Z,70.27
2019-01-16T11:48:40.748Z,69.65
2019-01-16T11:49:40.730Z,70.06
2019-01-16T11:50:40.704Z,69.85
2019-01-16T11:51:40.690Z,69.75
2019-01-16T11:52:40.674Z,69.75
2019-01-16T11:53:40.663Z,69.75
2019-01-16T11:54:40.684Z,69.24
2019-01-16T11:55:40.640Z,70.06
2019-01-16T11:56:40.630Z,69.75
2019-01-16T11:57:40.623Z,69.75
2019-01-16T11:58:40.623Z,69.24
2019-01-16T11:59:40.593Z,69.75
2019-01-16T12:00:40.606Z,69.34
2019-01-16T12:01:40.579Z,69.96
2019-01-16T12:02:40.564Z,69.96
2019-01-16T12:03:40.553Z,70.06
2019-01-16T12:04:40.632Z,69.85
2019-01-16T12:05:40.600Z,69.65
2019-01-16T12:06:40.570Z,69.75
2019-01-16T12:07:41.053Z,69.44
2019-01-16T12:08:40.528Z,69.75
2019-01-16T12:09:40.529Z,69.85
2019-01-16T12:10:40.787Z,69.13
2019-01-16T12:11:40.474Z,69.44
2019-01-16T12:12:40.460Z,69.54
2019-01-16T12:13:40.720Z,69.34
2019-01-16T12:14:40.447Z,69.24
2019-01-16T12:15:40.445Z,69.24
2019-01-16T12:16:40.435Z,69.13
2019-01-16T12:17:40.793Z,69.65
2019-01-16T12:18:40.394Z,69.44
2019-01-16T12:19:40.443Z,69.13
2019-01-16T12:20:40.417Z,69.44
2019-01-16T12:21:40.365Z,69.24
2019-01-16T12:22:40.352Z,69.03
2019-01-16T12:23:40.449Z,69.13
2019-01-16T12:24:40.727Z,69.65
2019-01-16T12:25:40.330Z,69.24
2019-01-16T12:26:40.373Z,69.24
2019-01-16T12:27:40.496Z,69.13
2019-01-16T12:28:40.460Z,69.34
2019-01-16T12:29:40.281Z,69.34
2019-01-16T12:30:40.277Z,69.20
2019-01-16T12:31:40.266Z,69.34
2019-01-16T12:32:40.234Z,69.03
2019-01-16T12:33:40.313Z,69.20
2019-01-16T12:34:40.279Z,69.10
2019-01-16T12:35:40.306Z,69.03
2019-01-16T12:36:40.352Z,69.31
2019-01-16T12:37:40.191Z,69.10
2019-01-16T12:38:40.216Z,69.10
2019-01-16T12:39:40.174Z,69.34
2019-01-16T12:40:40.166Z,69.62
2019-01-16T12:41:40.159Z,69.31
2019-01-16T12:42:40.127Z,69.20
2019-01-16T12:43:40.174Z,69.24
2019-01-16T12:44:40.106Z,69.00
2019-01-16T12:45:40.129Z,69.31
2019-01-16T12:46:40.216Z,69.41
2019-01-16T12:47:40.527Z,69.00
2019-01-16T12:48:40.091Z,69.44
2019-01-16T12:49:40.049Z,69.10
2019-01-16T12:50:40.042Z,69.62
2019-01-16T12:51:40.100Z,69.20
2019-01-16T12:52:40.024Z,69.20
2019-01-16T12:53:40.007Z,69.44
2019-01-16T12:54:39.993Z,69.24
2019-01-16T12:55:40.005Z,69.03
2019-01-16T12:56:39.981Z,69.24
2019-01-16T12:57:39.979Z,69.34
2019-01-16T12:58:39.948Z,69.44
2019-01-16T12:59:39.937Z,69.24